Time;durP1;ratioP1;P1;durP2;ratioP2;P2;SDS_P1;SDS_P2;PMS_P1;PMS_P2;Temp;Humidity;BMP_temperature;BMP_pressure;BME280_temperature;BME280_humidity;BME280_pressure;Samples;Min_cycle;Max_cycle;Signal;HPM_P1;HPM_P2
2022/07/26 00:00:21;;;;;;;11.90;6.70;;;21.40;99.90;;;;;;5074691;28;20466;-65
2022/07/26 00:02:48;;;;;;;11.20;5.67;;;21.40;99.90;;;;;;5075574;28;20998;-65
2022/07/26 00:05:16;;;;;;;7.00;5.30;;;21.40;99.90;;;;;;5074840;28;20508;-65
2022/07/26 00:07:43;;;;;;;8.57;5.80;;;21.40;99.90;;;;;;5075891;28;20434;-65
2022/07/26 00:10:12;;;;;;;7.43;5.47;;;21.40;99.90;;;;;;5074839;28;20566;-65
2022/07/26 00:12:39;;;;;;;6.10;5.50;;;21.30;99.90;;;;;;5073838;28;20438;-65
2022/07/26 00:15:09;;;;;;;6.77;5.73;;;21.40;99.90;;;;;;5075500;28;20528;-65
2022/07/26 00:17:36;;;;;;;5.60;4.80;;;21.30;99.90;;;;;;5074637;28;20521;-65
2022/07/26 00:20:04;;;;;;;7.07;5.00;;;21.30;99.90;;;;;;5075184;28;20919;-66
2022/07/26 00:22:34;;;;;;;7.87;5.20;;;21.20;99.90;;;;;;5074602;28;20469;-65
2022/07/26 00:25:02;;;;;;;8.23;5.30;;;21.00;99.90;;;;;;5075203;28;20464;-65
2022/07/26 00:27:30;;;;;;;4.97;3.17;;;21.00;99.90;;;;;;5074179;28;20522;-65
2022/07/26 00:29:57;;;;;;;6.70;4.00;;;21.00;99.90;;;;;;5074990;28;20519;-65
2022/07/26 00:32:24;;;;;;;5.10;4.27;;;21.00;99.90;;;;;;5074323;28;20470;-66
2022/07/26 00:34:52;;;;;;;6.67;4.60;;;20.90;99.90;;;;;;5075295;28;20425;-65
2022/07/26 00:37:19;;;;;;;7.33;4.23;;;20.80;99.90;;;;;;5074353;28;20519;-65
2022/07/26 00:39:48;;;;;;;5.73;4.00;;;20.80;99.90;;;;;;5075027;28;20431;-65
2022/07/26 00:42:16;;;;;;;6.03;3.70;;;20.80;99.90;;;;;;5073303;28;20487;-66
2022/07/26 00:44:47;;;;;;;5.90;4.60;;;20.80;99.90;;;;;;5074902;28;20472;-65
2022/07/26 00:47:18;;;;;;;6.43;4.40;;;20.80;99.90;;;;;;5074294;28;20498;-65
2022/07/26 00:49:45;;;;;;;6.20;4.30;;;20.80;99.90;;;;;;5074364;28;20481;-65
2022/07/26 00:52:12;;;;;;;5.20;4.17;;;20.70;99.90;;;;;;5073890;28;20460;-65
2022/07/26 00:54:42;;;;;;;6.27;4.57;;;20.60;99.90;;;;;;5073798;28;20532;-66
2022/07/26 00:57:09;;;;;;;5.77;4.63;;;20.60;99.90;;;;;;5073086;28;20441;-65
2022/07/26 00:59:37;;;;;;;8.07;4.90;;;20.60;99.90;;;;;;5074002;28;20436;-65
2022/07/26 01:02:07;;;;;;;5.23;4.37;;;20.60;99.90;;;;;;5071474;28;20851;-66
2022/07/26 01:04:35;;;;;;;7.80;4.37;;;20.60;99.90;;;;;;5074504;28;20483;-65
2022/07/26 01:07:02;;;;;;;7.40;4.90;;;20.60;99.90;;;;;;5073634;28;20468;-65
2022/07/26 01:09:30;;;;;;;6.13;5.00;;;20.60;99.90;;;;;;5074197;28;20527;-67
2022/07/26 01:11:58;;;;;;;9.17;4.70;;;20.60;99.90;;;;;;5073331;28;20440;-66
2022/07/26 01:14:25;;;;;;;6.33;5.17;;;20.60;99.90;;;;;;5074261;28;20800;-66
2022/07/26 01:16:52;;;;;;;6.00;4.40;;;20.60;99.90;;;;;;5073626;28;20460;-65
2022/07/26 01:19:22;;;;;;;4.73;3.70;;;20.60;99.90;;;;;;5073595;28;20472;-65
2022/07/26 01:21:54;;;;;;;6.60;4.80;;;20.70;99.90;;;;;;5074306;28;20535;-65
2022/07/26 01:24:21;;;;;;;5.53;4.30;;;20.70;99.90;;;;;;5073048;28;20465;-66
2022/07/26 01:26:48;;;;;;;5.30;4.33;;;20.70;99.90;;;;;;5074132;28;20572;-65
2022/07/26 01:29:17;;;;;;;8.03;5.37;;;20.60;99.90;;;;;;5073337;28;20472;-65
2022/07/26 01:31:44;;;;;;;5.67;4.27;;;20.60;99.90;;;;;;5073658;28;20487;-66
2022/07/26 01:34:11;;;;;;;5.67;4.30;;;20.60;99.90;;;;;;5073016;28;20835;-65
2022/07/26 01:36:38;;;;;;;5.10;3.77;;;20.50;99.90;;;;;;5072813;28;20490;-65
2022/07/26 01:39:07;;;;;;;4.90;4.40;;;20.50;99.90;;;;;;5072820;28;20436;-65
2022/07/26 01:41:34;;;;;;;5.80;4.20;;;20.60;99.90;;;;;;5073759;28;20528;-65
2022/07/26 01:44:01;;;;;;;6.73;4.63;;;20.60;99.90;;;;;;5072737;28;20481;-65
2022/07/26 01:46:28;;;;;;;9.03;4.97;;;20.60;99.90;;;;;;5073367;28;20428;-66
2022/07/26 01:48:55;;;;;;;5.10;4.60;;;20.60;99.90;;;;;;5072765;28;20436;-65
2022/07/26 01:51:22;;;;;;;8.20;5.60;;;20.70;99.90;;;;;;5073660;28;20532;-65
2022/07/26 01:53:49;;;;;;;7.20;5.07;;;20.80;99.90;;;;;;5072790;28;20708;-65
2022/07/26 01:56:18;;;;;;;8.50;5.10;;;20.80;99.90;;;;;;5073650;28;20445;-65
2022/07/26 01:58:45;;;;;;;7.17;5.33;;;20.80;99.90;;;;;;5072699;28;20843;-65
2022/07/26 02:01:12;;;;;;;7.00;4.47;;;20.80;99.90;;;;;;5073107;28;20440;-65
2022/07/26 02:03:41;;;;;;;7.00;4.30;;;20.80;99.90;;;;;;5072573;28;20444;-66
2022/07/26 02:06:23;;;;;;;5.80;4.70;;;20.80;99.90;;;;;;5073398;28;20436;-65
2022/07/26 02:08:50;;;;;;;8.10;4.93;;;20.70;99.90;;;;;;5069346;28;20506;-65
2022/07/26 02:11:19;;;;;;;5.73;4.33;;;20.50;99.90;;;;;;5072031;28;20483;-65
2022/07/26 02:13:48;;;;;;;8.63;4.00;;;20.40;99.90;;;;;;5072693;28;20534;-65
2022/07/26 02:16:16;;;;;;;6.57;4.20;;;20.40;99.90;;;;;;5072052;28;20515;-66
2022/07/26 02:18:48;;;;;;;6.07;4.30;;;20.40;99.90;;;;;;5072373;28;20468;-65
2022/07/26 02:21:20;;;;;;;6.20;3.87;;;20.40;99.90;;;;;;5073396;28;20448;-65
2022/07/26 02:23:47;;;;;;;6.80;4.40;;;20.40;99.90;;;;;;5072362;28;20547;-65
2022/07/26 02:26:18;;;;;;;6.40;4.50;;;20.40;99.90;;;;;;5073417;28;20433;-65
2022/07/26 02:28:45;;;;;;;6.27;2.73;;;20.40;99.90;;;;;;5072239;28;20974;-65
2022/07/26 02:31:20;;;;;;;6.53;4.40;;;20.40;99.90;;;;;;5071914;28;20471;-65
2022/07/26 02:33:47;;;;;;;5.70;4.43;;;20.40;99.90;;;;;;5072227;28;20764;-65
2022/07/26 02:36:20;;;;;;;6.57;3.53;;;20.50;99.90;;;;;;5073003;28;20443;-65
2022/07/26 02:38:47;;;;;;;6.80;4.17;;;20.60;99.90;;;;;;5072082;28;20471;-65
2022/07/26 02:41:14;;;;;;;4.87;3.50;;;20.60;99.90;;;;;;5073094;28;20463;-65
2022/07/26 02:43:42;;;;;;;4.70;4.00;;;20.60;99.90;;;;;;5072014;28;20958;-65
2022/07/26 02:46:09;;;;;;;7.10;4.10;;;20.60;99.90;;;;;;5072909;28;20443;-65
2022/07/26 02:48:36;;;;;;;7.23;3.67;;;20.70;99.90;;;;;;5071684;28;20509;-65
2022/07/26 02:51:04;;;;;;;5.47;3.70;;;20.70;99.90;;;;;;5071779;28;20549;-65
2022/07/26 02:53:31;;;;;;;7.10;4.17;;;20.70;99.90;;;;;;5072682;28;20842;-65
2022/07/26 02:55:59;;;;;;;5.50;3.87;;;20.70;99.90;;;;;;5071656;28;20481;-66
2022/07/26 02:58:26;;;;;;;7.80;4.70;;;20.60;99.90;;;;;;5072458;28;20814;-66
2022/07/26 03:00:55;;;;;;;4.90;3.87;;;20.60;99.90;;;;;;5072000;28;20441;-66
2022/07/26 03:03:23;;;;;;;4.10;3.10;;;20.60;99.90;;;;;;5072288;28;20445;-65
2022/07/26 03:05:54;;;;;;;8.67;4.20;;;20.60;99.90;;;;;;5072247;28;20436;-65
2022/07/26 03:08:23;;;;;;;6.17;4.70;;;20.60;99.90;;;;;;5071554;28;20432;-66
2022/07/26 03:10:51;;;;;;;4.53;3.53;;;20.60;99.90;;;;;;5072206;28;20488;-65
2022/07/26 03:13:18;;;;;;;5.93;3.63;;;20.70;99.90;;;;;;5071541;28;20441;-65
2022/07/26 03:15:45;;;;;;;7.73;3.80;;;20.70;99.90;;;;;;5072357;28;20534;-65
2022/07/26 03:18:18;;;;;;;4.90;3.60;;;20.70;99.90;;;;;;5070935;28;20551;-67
2022/07/26 03:20:45;;;;;;;4.23;3.47;;;20.70;99.90;;;;;;5072395;28;20525;-66
2022/07/26 03:23:12;;;;;;;6.03;3.77;;;20.70;99.90;;;;;;5072843;28;20969;-65
2022/07/26 03:25:41;;;;;;;5.13;3.80;;;20.70;99.90;;;;;;5075696;28;20527;-65
2022/07/26 03:28:13;;;;;;;4.80;3.63;;;20.60;99.90;;;;;;5076126;28;20478;-65
2022/07/26 03:30:48;;;;;;;6.50;4.07;;;20.50;99.90;;;;;;5074963;28;20523;-65
2022/07/26 03:33:16;;;;;;;5.77;3.93;;;20.50;99.90;;;;;;5076321;28;20524;-65
2022/07/26 03:35:44;;;;;;;6.93;4.67;;;20.40;99.90;;;;;;5075190;28;20463;-65
2022/07/26 03:38:11;;;;;;;5.70;3.67;;;20.40;99.90;;;;;;5076347;28;20464;-65
2022/07/26 03:40:38;;;;;;;4.90;3.70;;;20.40;99.90;;;;;;5075482;28;20448;-65
2022/07/26 03:43:05;;;;;;;5.73;4.30;;;20.30;99.90;;;;;;5076362;28;20472;-65
2022/07/26 03:45:34;;;;;;;6.40;4.53;;;20.30;99.90;;;;;;5075340;28;20519;-65
2022/07/26 03:48:10;;;;;;;6.07;3.47;;;20.20;99.90;;;;;;5075822;28;20444;-65
2022/07/26 03:50:37;;;;;;;5.83;3.97;;;20.20;99.90;;;;;;5074502;28;20431;-65
2022/07/26 03:53:06;;;;;;;10.63;4.40;;;20.20;99.90;;;;;;5075486;28;20458;-67
2022/07/26 03:58:24;;;;;;;5.60;4.30;;;20.30;99.90;;;;;;5057519;28;20420;-65
2022/07/26 04:00:54;;;;;;;4.90;3.70;;;20.30;99.90;;;;;;5074962;28;20446;-65
2022/07/26 04:03:22;;;;;;;6.50;3.67;;;20.40;99.90;;;;;;5075437;28;20440;-65
2022/07/26 04:05:53;;;;;;;11.77;4.83;;;20.40;99.90;;;;;;5075490;28;20440;-66
2022/07/26 04:08:22;;;;;;;5.53;3.90;;;20.40;99.90;;;;;;5075479;28;20495;-65
2022/07/26 04:10:54;;;;;;;7.80;3.57;;;20.40;99.90;;;;;;5075701;28;21066;-65
2022/07/26 04:13:24;;;;;;;4.83;3.30;;;20.40;99.90;;;;;;5075482;28;20952;-67
2022/07/26 04:15:52;;;;;;;5.57;3.90;;;20.30;99.90;;;;;;5075549;28;20447;-67
2022/07/26 04:18:19;;;;;;;6.40;3.07;;;20.20;99.90;;;;;;5075028;28;20948;-66
2022/07/26 04:20:49;;;;;;;5.47;3.90;;;20.20;99.90;;;;;;5073935;28;20436;-65
2022/07/26 04:23:16;;;;;;;4.57;3.13;;;20.10;99.90;;;;;;5074186;28;20439;-65
2022/07/26 04:25:45;;;;;;;3.50;2.47;;;20.10;99.90;;;;;;5074816;28;20444;-65
2022/07/26 04:28:13;;;;;;;4.20;2.43;;;20.00;99.90;;;;;;5074812;28;20440;-65
2022/07/26 04:30:45;;;;;;;5.97;2.80;;;19.90;99.90;;;;;;5075197;28;20473;-65
2022/07/26 04:33:20;;;;;;;5.00;2.47;;;20.00;99.90;;;;;;5074186;28;20424;-65
2022/07/26 04:35:50;;;;;;;3.83;2.57;;;19.90;99.90;;;;;;5074062;28;20440;-67
2022/07/26 04:38:22;;;;;;;4.57;2.60;;;19.70;99.90;;;;;;5074831;28;20827;-67
2022/07/26 04:40:51;;;;;;;3.67;2.33;;;19.70;99.90;;;;;;5075048;28;20934;-67
2022/07/26 04:43:19;;;;;;;3.67;2.20;;;19.60;99.90;;;;;;5075118;28;20476;-67
2022/07/26 04:45:49;;;;;;;7.40;2.50;;;19.60;99.90;;;;;;5075025;28;20444;-67
2022/07/26 04:48:19;;;;;;;9.73;3.30;;;19.60;99.90;;;;;;5073890;28;20440;-67
2022/07/26 04:50:55;;;;;;;9.03;4.40;;;19.70;99.90;;;;;;5074903;28;20861;-67
2022/07/26 04:53:24;;;;;;;4.30;3.10;;;19.80;99.90;;;;;;5074541;28;20968;-67
2022/07/26 04:55:52;;;;;;;5.03;3.33;;;19.70;99.90;;;;;;5074937;28;20443;-67
2022/07/26 04:58:21;;;;;;;5.60;3.17;;;19.70;99.90;;;;;;5074423;28;20451;-67
2022/07/26 05:00:50;;;;;;;4.70;3.40;;;19.70;99.90;;;;;;5074004;28;20448;-67
2022/07/26 05:03:20;;;;;;;5.00;3.10;;;19.70;99.90;;;;;;5074550;28;20447;-68
2022/07/26 05:05:49;;;;;;;5.40;2.60;;;19.80;99.90;;;;;;5074354;28;20442;-67
2022/07/26 05:08:16;;;;;;;3.83;2.60;;;19.80;99.90;;;;;;5072866;28;20486;-67
2022/07/26 05:10:44;;;;;;;5.00;2.60;;;19.80;99.90;;;;;;5074342;28;20498;-67
2022/07/26 05:13:13;;;;;;;6.23;2.40;;;19.90;99.90;;;;;;5073953;28;20774;-65
2022/07/26 05:15:41;;;;;;;4.70;2.50;;;20.00;99.90;;;;;;5074153;28;20438;-65
2022/07/26 05:18:10;;;;;;;4.53;3.13;;;20.00;99.90;;;;;;5071973;28;20436;-65
2022/07/26 05:20:37;;;;;;;4.30;3.07;;;20.10;99.90;;;;;;5074044;28;20494;-66
2022/07/26 05:23:05;;;;;;;3.80;2.87;;;20.20;99.90;;;;;;5073361;28;20523;-67
2022/07/26 05:25:32;;;;;;;4.00;3.20;;;20.20;99.90;;;;;;5073835;28;20494;-68
2022/07/26 05:28:08;;;;;;;4.00;2.63;;;20.20;99.90;;;;;;5074403;28;20437;-67
2022/07/26 05:30:37;;;;;;;3.33;2.47;;;20.30;99.90;;;;;;5073415;28;20450;-68
2022/07/26 05:33:04;;;;;;;4.40;2.47;;;20.30;99.90;;;;;;5073706;28;21009;-68
2022/07/26 05:35:31;;;;;;;8.93;3.50;;;20.30;99.90;;;;;;5073394;28;20502;-67
2022/07/26 05:38:01;;;;;;;3.87;2.60;;;20.30;99.90;;;;;;5073914;28;20446;-65
2022/07/26 05:40:30;;;;;;;4.37;3.00;;;20.40;99.90;;;;;;5073670;28;20805;-65
2022/07/26 05:42:57;;;;;;;3.70;2.97;;;20.30;99.90;;;;;;5073972;28;20436;-65
2022/07/26 05:45:30;;;;;;;4.30;2.80;;;20.30;99.90;;;;;;5073317;28;20459;-66
2022/07/26 05:47:59;;;;;;;4.00;2.47;;;20.30;99.90;;;;;;5072870;28;20440;-66
2022/07/26 05:50:28;;;;;;;5.03;3.17;;;20.30;99.90;;;;;;5073485;28;20512;-65
2022/07/26 05:52:56;;;;;;;4.97;2.80;;;20.30;99.90;;;;;;5070134;28;20914;-66
2022/07/26 05:55:23;;;;;;;4.10;2.60;;;20.30;99.90;;;;;;5071598;28;20435;-65
2022/07/26 05:57:50;;;;;;;3.80;2.77;;;20.30;99.90;;;;;;5071191;28;20432;-66
2022/07/26 06:00:19;;;;;;;3.93;2.70;;;20.30;99.90;;;;;;5066889;28;20831;-65
2022/07/26 06:02:46;;;;;;;3.40;2.83;;;20.30;99.90;;;;;;5071935;28;21777;-65
2022/07/26 06:05:15;;;;;;;3.77;2.63;;;20.40;99.90;;;;;;5071407;28;20919;-65
2022/07/26 06:07:42;;;;;;;3.60;2.80;;;20.50;99.90;;;;;;5071186;28;20445;-66
2022/07/26 06:10:14;;;;;;;4.47;2.40;;;20.50;99.90;;;;;;5070779;28;20437;-65
2022/07/26 06:12:42;;;;;;;2.80;2.17;;;20.50;99.90;;;;;;5071460;28;20480;-65
2022/07/26 06:15:17;;;;;;;4.23;2.13;;;20.50;99.90;;;;;;5069865;28;20514;-66
2022/07/26 06:17:46;;;;;;;5.57;3.40;;;20.50;99.90;;;;;;5070229;28;20463;-66
2022/07/26 06:20:14;;;;;;;5.63;3.60;;;20.60;99.90;;;;;;5071488;28;20441;-65
2022/07/26 06:22:41;;;;;;;7.70;3.33;;;20.60;99.90;;;;;;5071077;28;20442;-66
2022/07/26 06:25:09;;;;;;;3.37;2.30;;;20.60;99.90;;;;;;5071460;28;21199;-65
2022/07/26 06:27:36;;;;;;;4.50;2.80;;;20.60;99.90;;;;;;5068144;28;20947;-68
2022/07/26 06:30:03;;;;;;;4.87;2.37;;;20.60;99.90;;;;;;5071747;28;20444;-68
2022/07/26 06:32:30;;;;;;;5.70;3.17;;;20.60;99.90;;;;;;5071570;28;20877;-66
2022/07/26 06:34:57;;;;;;;4.93;2.00;;;20.60;99.90;;;;;;5069507;28;20530;-69
2022/07/26 06:37:26;;;;;;;4.30;2.80;;;20.60;99.90;;;;;;5069089;28;20520;-67
2022/07/26 06:39:54;;;;;;;6.87;2.90;;;20.60;99.90;;;;;;5071046;28;20472;-66
2022/07/26 06:42:21;;;;;;;3.50;2.10;;;20.60;99.90;;;;;;5071247;28;20942;-68
2022/07/26 06:44:49;;;;;;;3.30;2.33;;;20.70;99.90;;;;;;5067025;28;20551;-70
2022/07/26 06:47:21;;;;;;;4.10;2.40;;;20.80;99.90;;;;;;5058465;28;20448;-66
2022/07/26 06:49:56;;;;;;;4.50;2.70;;;20.70;99.90;;;;;;5065035;28;20446;-66
2022/07/26 06:52:23;;;;;;;5.53;2.70;;;20.60;99.90;;;;;;5068386;28;20483;-65
2022/07/26 06:54:52;;;;;;;3.87;2.33;;;20.70;99.90;;;;;;5067325;28;20967;-66
2022/07/26 06:57:21;;;;;;;4.63;2.67;;;20.60;99.90;;;;;;5065965;28;20439;-67
2022/07/26 06:59:49;;;;;;;4.77;2.40;;;20.70;99.90;;;;;;5068021;28;20488;-67
2022/07/26 07:02:16;;;;;;;4.50;2.80;;;20.80;99.90;;;;;;5069845;28;20452;-66
2022/07/26 07:04:43;;;;;;;3.87;2.87;;;20.80;99.90;;;;;;5070270;28;20862;-65
2022/07/26 07:07:10;;;;;;;3.80;2.83;;;20.80;99.90;;;;;;5072180;28;20528;-66
2022/07/26 07:09:37;;;;;;;5.57;2.97;;;20.90;99.90;;;;;;5073141;28;20468;-65
2022/07/26 07:12:07;;;;;;;5.90;3.60;;;21.00;99.90;;;;;;5072515;28;20572;-65
2022/07/26 07:14:34;;;;;;;4.77;2.60;;;21.00;99.90;;;;;;5072365;28;20938;-65
2022/07/26 07:17:03;;;;;;;4.43;2.20;;;21.00;99.90;;;;;;5071985;28;20540;-65
2022/07/26 07:19:30;;;;;;;4.63;2.67;;;21.00;99.90;;;;;;5072679;28;20481;-65
2022/07/26 07:21:57;;;;;;;3.80;2.70;;;21.00;99.90;;;;;;5072344;28;20473;-67
2022/07/26 07:24:24;;;;;;;8.23;2.90;;;21.00;99.90;;;;;;5072553;28;20563;-65
2022/07/26 07:26:51;;;;;;;4.40;3.10;;;21.10;99.90;;;;;;5072843;28;20524;-65
2022/07/26 07:29:20;;;;;;;3.80;2.37;;;21.10;99.90;;;;;;5072530;28;20441;-65
2022/07/26 07:31:52;;;;;;;5.30;2.77;;;21.10;99.90;;;;;;5072316;28;20470;-66
2022/07/26 07:34:21;;;;;;;3.60;2.80;;;21.20;99.90;;;;;;5072927;28;20449;-65
2022/07/26 07:36:48;;;;;;;4.60;3.33;;;21.20;99.90;;;;;;5072736;28;20433;-65
2022/07/26 07:39:15;;;;;;;3.80;2.60;;;21.20;99.90;;;;;;5072808;28;20499;-66
2022/07/26 07:41:42;;;;;;;5.50;3.03;;;21.30;99.90;;;;;;5072810;28;20910;-65
2022/07/26 07:44:11;;;;;;;5.43;2.90;;;21.40;99.90;;;;;;5072328;28;20438;-65
2022/07/26 07:46:39;;;;;;;4.10;3.13;;;21.50;99.90;;;;;;5072785;28;20530;-66
2022/07/26 07:49:06;;;;;;;6.27;2.90;;;21.50;99.90;;;;;;5072579;28;20446;-66
2022/07/26 07:51:34;;;;;;;5.20;3.10;;;21.50;99.90;;;;;;5072392;28;20444;-66
2022/07/26 07:54:01;;;;;;;4.90;3.20;;;21.60;99.90;;;;;;5072615;28;20537;-66
2022/07/26 07:56:28;;;;;;;4.43;3.33;;;21.80;99.90;;;;;;5072677;28;20518;-66
2022/07/26 07:58:55;;;;;;;7.00;3.60;;;21.90;99.90;;;;;;5072377;28;20522;-65
2022/07/26 08:01:22;;;;;;;7.83;3.30;;;22.10;99.90;;;;;;5072504;28;20530;-66
2022/07/26 08:03:50;;;;;;;5.20;3.30;;;22.20;99.90;;;;;;5072551;28;20451;-66
2022/07/26 08:06:17;;;;;;;3.50;2.83;;;22.20;99.90;;;;;;5072034;28;20539;-65
2022/07/26 08:08:44;;;;;;;6.20;3.50;;;22.30;99.90;;;;;;5072422;28;20988;-65
2022/07/26 08:11:11;;;;;;;5.60;2.97;;;22.30;99.90;;;;;;5075499;28;20436;-66
2022/07/26 08:13:38;;;;;;;4.70;3.00;;;22.20;99.90;;;;;;5075880;28;20487;-66
2022/07/26 08:16:06;;;;;;;3.20;2.53;;;22.10;99.90;;;;;;5075548;28;20447;-66
2022/07/26 08:18:33;;;;;;;5.60;2.77;;;22.10;99.90;;;;;;5075605;28;21015;-66
2022/07/26 08:21:02;;;;;;;3.30;2.20;;;22.10;99.90;;;;;;5075470;28;20496;-65
2022/07/26 08:23:29;;;;;;;3.17;2.17;;;22.10;99.90;;;;;;5075804;28;20505;-66
2022/07/26 08:25:57;;;;;;;5.23;2.70;;;22.00;99.90;;;;;;5075659;28;20910;-66
2022/07/26 08:28:25;;;;;;;4.23;3.00;;;21.90;99.90;;;;;;5075872;28;20778;-65
2022/07/26 08:30:57;;;;;;;3.47;2.20;;;21.90;99.90;;;;;;5075602;28;20486;-65
2022/07/26 08:33:24;;;;;;;3.53;2.40;;;21.80;99.90;;;;;;5075376;28;21054;-65
2022/07/26 08:35:50;;;;;;;4.20;2.33;;;21.70;99.90;;;;;;5075268;28;20519;-66
2022/07/26 08:38:19;;;;;;;3.27;1.83;;;21.60;99.90;;;;;;5075507;28;20438;-65
2022/07/26 08:40:48;;;;;;;4.47;1.93;;;21.70;99.90;;;;;;5075639;28;20477;-65
2022/07/26 08:43:17;;;;;;;3.73;2.33;;;21.70;99.90;;;;;;5075648;28;21330;-65
2022/07/26 08:45:44;;;;;;;5.53;2.37;;;21.60;99.90;;;;;;5075539;28;20442;-65
2022/07/26 08:48:11;;;;;;;5.93;2.60;;;21.60;99.90;;;;;;5075141;28;21012;-66
2022/07/26 08:50:39;;;;;;;4.10;1.90;;;21.60;99.90;;;;;;5075512;28;20794;-66
2022/07/26 08:53:08;;;;;;;6.33;2.10;;;21.50;99.90;;;;;;5075124;28;20904;-66
2022/07/26 08:55:36;;;;;;;2.93;1.70;;;21.50;99.90;;;;;;5074863;28;20444;-66
2022/07/26 08:58:04;;;;;;;4.83;2.40;;;21.50;99.90;;;;;;5075117;28;20534;-66
2022/07/26 09:00:31;;;;;;;3.67;2.13;;;21.40;99.90;;;;;;5075219;28;20949;-66
2022/07/26 09:03:00;;;;;;;2.93;2.00;;;21.40;99.90;;;;;;5075340;28;20439;-65
2022/07/26 09:05:29;;;;;;;7.40;2.03;;;21.40;99.90;;;;;;5075217;28;20472;-65
2022/07/26 09:07:57;;;;;;;3.90;1.63;;;21.50;99.90;;;;;;5074867;28;20529;-66
2022/07/26 09:10:25;;;;;;;3.13;1.60;;;21.50;99.90;;;;;;5074918;28;20998;-66
2022/07/26 09:12:57;;;;;;;2.73;2.00;;;21.50;99.90;;;;;;5075069;28;20559;-67
2022/07/26 09:15:26;;;;;;;5.40;1.83;;;21.50;99.90;;;;;;5075250;28;20445;-66
2022/07/26 09:17:55;;;;;;;2.70;1.77;;;21.50;99.90;;;;;;5075195;28;20535;-66
2022/07/26 09:20:24;;;;;;;5.10;1.93;;;21.60;99.90;;;;;;5074707;28;20444;-66
2022/07/26 09:23:02;;;;;;;2.60;2.00;;;21.60;99.90;;;;;;5074516;28;20435;-66
2022/07/26 09:25:32;;;;;;;3.57;1.67;;;21.60;99.90;;;;;;5074698;28;20439;-65
2022/07/26 09:28:01;;;;;;;2.73;1.73;;;21.60;99.90;;;;;;5074796;28;20813;-66
2022/07/26 09:30:33;;;;;;;3.40;1.60;;;21.60;99.90;;;;;;5074652;28;20939;-66
2022/07/26 09:33:02;;;;;;;3.10;1.57;;;21.70;99.90;;;;;;5074731;28;20881;-66
2022/07/26 09:35:31;;;;;;;2.90;1.63;;;21.80;99.90;;;;;;5074820;28;20533;-66
2022/07/26 09:37:58;;;;;;;2.87;1.53;;;21.80;99.90;;;;;;5074564;28;20529;-66
2022/07/26 09:40:33;;;;;;;2.97;1.73;;;22.00;99.90;;;;;;5074174;28;20537;-66
2022/07/26 09:43:03;;;;;;;3.50;2.00;;;22.10;99.90;;;;;;5074294;28;20450;-65
2022/07/26 09:45:32;;;;;;;4.60;1.93;;;22.30;99.90;;;;;;5074541;28;20439;-66
2022/07/26 09:47:59;;;;;;;3.37;1.40;;;22.50;99.90;;;;;;5073967;28;20440;-66
2022/07/26 09:50:28;;;;;;;3.80;2.63;;;22.60;98.70;;;;;;5073951;28;20527;-66
2022/07/26 09:53:06;;;;;;;3.27;2.37;;;22.80;99.30;;;;;;5073798;28;20498;-66
2022/07/26 09:55:34;;;;;;;2.70;1.60;;;23.10;99.00;;;;;;5073953;28;20446;-65
2022/07/26 09:58:05;;;;;;;2.97;1.50;;;23.20;98.40;;;;;;5074079;28;20477;-66
2022/07/26 10:00:36;;;;;;;3.67;1.70;;;23.10;95.70;;;;;;5074046;28;20436;-66
2022/07/26 10:03:03;;;;;;;3.20;2.00;;;23.00;96.50;;;;;;5073832;28;20440;-66
2022/07/26 10:05:32;;;;;;;2.90;1.60;;;22.80;94.20;;;;;;5073510;28;20519;-66
2022/07/26 10:08:03;;;;;;;4.57;2.10;;;22.50;94.30;;;;;;5073993;28;20471;-66
2022/07/26 10:10:44;;;;;;;3.70;2.40;;;22.20;94.90;;;;;;5073487;28;20490;-66
2022/07/26 10:13:26;;;;;;;3.63;2.70;;;21.90;95.40;;;;;;5073866;28;20570;-65
2022/07/26 10:15:55;;;;;;;3.23;2.17;;;21.70;96.30;;;;;;5073651;28;20513;-65
2022/07/26 10:18:44;;;;;;;6.97;4.10;;;21.50;96.70;;;;;;5073826;28;20436;-66
2022/07/26 10:21:24;;;;;;;6.73;3.27;;;21.20;97.80;;;;;;5073577;28;20497;-66
2022/07/26 10:23:57;;;;;;;5.10;3.30;;;21.20;98.80;;;;;;5073170;28;20521;-66
2022/07/26 10:26:44;;;;;;;6.00;3.60;;;21.30;99.90;;;;;;5073823;28;20460;-67
2022/07/26 10:29:27;;;;;;;6.43;3.50;;;21.30;99.40;;;;;;5073751;28;20426;-65
2022/07/26 10:32:15;;;;;;;3.70;2.83;;;21.40;99.90;;;;;;5072975;28;20495;-66
2022/07/26 10:34:42;;;;;;;3.83;2.83;;;21.50;99.90;;;;;;5073103;28;20488;-66
2022/07/26 10:37:19;;;;;;;4.63;2.57;;;21.50;99.90;;;;;;5073021;28;20493;-66
2022/07/26 10:39:47;;;;;;;5.30;3.10;;;21.50;99.90;;;;;;5073546;28;20443;-65
2022/07/26 10:42:18;;;;;;;4.07;2.87;;;21.40;99.80;;;;;;5073246;28;20493;-65
2022/07/26 10:44:48;;;;;;;5.30;2.90;;;21.40;99.70;;;;;;5073354;28;20492;-70
2022/07/26 10:47:17;;;;;;;3.63;2.67;;;21.30;99.90;;;;;;5073196;28;20998;-72
2022/07/26 10:49:55;;;;;;;2.93;1.90;;;21.30;99.80;;;;;;5073220;28;20941;-74
2022/07/26 10:52:25;;;;;;;4.67;2.57;;;21.20;99.90;;;;;;5073187;28;20442;-65
2022/07/26 10:55:07;;;;;;;4.00;2.80;;;21.20;99.90;;;;;;5073353;28;20596;-65
2022/07/26 10:57:36;;;;;;;3.30;2.10;;;21.20;99.90;;;;;;5072961;28;20474;-65
2022/07/26 11:00:12;;;;;;;4.80;2.33;;;21.20;99.90;;;;;;5073057;28;20491;-65
2022/07/26 11:02:42;;;;;;;3.90;2.07;;;21.00;99.80;;;;;;5072605;28;20447;-65
2022/07/26 11:05:21;;;;;;;4.17;2.50;;;21.10;99.90;;;;;;5072916;28;20445;-68
2022/07/26 11:07:54;;;;;;;2.60;1.87;;;21.30;99.90;;;;;;5072228;28;20931;-66
2022/07/26 11:10:31;;;;;;;3.57;2.23;;;21.40;99.90;;;;;;5071788;28;20991;-65
2022/07/26 11:13:12;;;;;;;3.90;3.33;;;21.70;99.90;;;;;;5072904;28;20482;-66
2022/07/26 11:15:45;;;;;;;3.70;2.13;;;21.80;98.70;;;;;;5072449;28;20854;-66
2022/07/26 11:18:23;;;;;;;4.30;2.30;;;21.90;98.80;;;;;;5072142;28;20438;-66
2022/07/26 11:20:52;;;;;;;2.70;1.73;;;21.80;97.30;;;;;;5071176;28;20493;-66
2022/07/26 11:23:27;;;;;;;3.90;2.03;;;21.60;98.30;;;;;;5072424;28;20442;-71
2022/07/26 11:26:09;;;;;;;2.77;1.90;;;21.70;98.70;;;;;;5071174;28;20434;-66
2022/07/26 11:28:48;;;;;;;3.40;2.20;;;21.80;98.10;;;;;;5071843;28;20831;-65
2022/07/26 11:31:24;;;;;;;3.27;1.93;;;22.00;98.60;;;;;;5070999;28;20431;-70
2022/07/26 11:33:52;;;;;;;3.90;2.27;;;22.20;98.00;;;;;;5069099;28;20957;-66
2022/07/26 11:36:31;;;;;;;3.73;2.33;;;22.20;96.80;;;;;;5072185;28;20533;-65
2022/07/26 11:39:03;;;;;;;3.63;1.67;;;22.30;97.10;;;;;;5071562;28;20497;-66
2022/07/26 11:41:32;;;;;;;6.60;1.90;;;22.50;97.40;;;;;;5071730;28;20472;-66
2022/07/26 11:44:01;;;;;;;2.50;1.67;;;22.70;97.50;;;;;;5073323;28;20463;-67
2022/07/26 11:46:38;;;;;;;2.77;1.93;;;23.00;96.80;;;;;;5076054;28;20436;-66
2022/07/26 11:49:13;;;;;;;3.83;1.90;;;23.40;97.50;;;;;;5076505;28;20439;-66
2022/07/26 11:51:51;;;;;;;2.97;1.83;;;23.60;93.60;;;;;;5076422;28;20450;-66
2022/07/26 11:54:18;;;;;;;4.20;1.93;;;23.60;93.90;;;;;;5076195;28;20552;-66
2022/07/26 11:56:56;;;;;;;2.93;2.10;;;23.70;94.30;;;;;;5076290;28;20443;-65
2022/07/26 11:59:29;;;;;;;3.13;1.60;;;23.90;94.40;;;;;;5076588;28;20443;-65
2022/07/26 12:01:59;;;;;;;2.90;2.23;;;24.00;92.40;;;;;;5076340;28;20493;-65
2022/07/26 12:04:28;;;;;;;2.73;1.97;;;24.10;91.70;;;;;;5076380;28;20580;-65
2022/07/26 12:06:59;;;;;;;3.17;2.20;;;24.10;92.30;;;;;;5076133;28;20439;-66
2022/07/26 12:09:34;;;;;;;4.47;2.10;;;24.10;92.10;;;;;;5076202;28;20491;-65
2022/07/26 12:12:03;;;;;;;4.30;2.10;;;24.10;90.10;;;;;;5076227;28;20463;-66
2022/07/26 12:14:32;;;;;;;3.00;2.00;;;24.00;90.50;;;;;;5075973;28;20992;-66
2022/07/26 12:17:20;;;;;;;4.50;2.40;;;24.30;93.10;;;;;;5076118;28;20467;-66
2022/07/26 12:19:49;;;;;;;3.90;2.13;;;24.80;91.60;;;;;;5075435;28;20439;-66
2022/07/26 12:22:18;;;;;;;4.30;2.20;;;24.90;88.70;;;;;;5075980;28;20474;-65
2022/07/26 12:24:55;;;;;;;4.20;2.20;;;25.00;90.40;;;;;;5075242;28;20957;-66
2022/07/26 12:27:25;;;;;;;2.87;1.90;;;25.30;91.40;;;;;;5075731;28;20445;-66
2022/07/26 12:29:54;;;;;;;3.13;1.70;;;25.80;91.00;;;;;;5075751;28;20428;-65
2022/07/26 12:32:30;;;;;;;3.20;2.07;;;26.00;84.50;;;;;;5075521;28;20439;-66
2022/07/26 12:35:01;;;;;;;5.67;2.50;;;26.00;83.70;;;;;;5075858;28;20566;-66
2022/07/26 12:37:33;;;;;;;3.97;2.10;;;26.10;88.60;;;;;;5075872;28;20428;-66
2022/07/26 12:40:02;;;;;;;3.13;2.33;;;26.00;83.00;;;;;;5075890;28;20823;-66
2022/07/26 12:42:37;;;;;;;3.57;2.20;;;26.20;86.70;;;;;;5075398;28;20439;-66
2022/07/26 12:45:09;;;;;;;4.73;2.37;;;26.20;81.90;;;;;;5075715;28;20884;-66
2022/07/26 12:47:38;;;;;;;2.60;1.57;;;26.40;87.50;;;;;;5075088;28;20472;-66
2022/07/26 12:50:13;;;;;;;5.90;2.27;;;26.80;90.40;;;;;;5075313;28;20493;-67
2022/07/26 12:52:43;;;;;;;5.63;2.30;;;26.90;81.70;;;;;;5075046;28;20446;-66
2022/07/26 12:55:13;;;;;;;4.10;2.50;;;27.10;85.00;;;;;;5074576;28;20563;-65
2022/07/26 12:57:43;;;;;;;4.47;2.30;;;27.30;88.10;;;;;;5075030;28;20554;-65
2022/07/26 13:00:15;;;;;;;3.50;2.33;;;27.60;88.30;;;;;;5075027;28;20529;-66